createdAt,value
2019-05-12T00:02:33.611Z,8.15
2019-05-12T00:05:38.719Z,8.06
2019-05-12T00:08:43.890Z,8.07
2019-05-12T00:11:50.030Z,8.14
2019-05-12T00:14:55.142Z,8.07
2019-05-12T00:18:00.375Z,8.04
2019-05-12T00:21:05.503Z,8.05
2019-05-12T00:24:13.919Z,8.01
2019-05-12T00:27:21.022Z,8.08
2019-05-12T00:30:42.334Z,8.00
2019-05-12T00:33:48.069Z,8.09
2019-05-12T00:36:53.439Z,8.03
2019-05-12T00:39:58.576Z,8.17
2019-05-12T00:43:03.700Z,8.19
2019-05-12T00:46:08.893Z,8.08
2019-05-12T00:49:15.392Z,8.13
2019-05-12T00:52:20.599Z,8.06
2019-05-12T00:55:28.912Z,8.10
2019-05-12T00:58:33.785Z,8.11
2019-05-12T01:01:38.931Z,8.15
2019-05-12T01:04:44.208Z,8.23
2019-05-12T01:07:51.227Z,8.11
2019-05-12T01:10:58.303Z,8.09
2019-05-12T01:14:03.079Z,8.09
2019-05-12T01:17:08.535Z,8.15
2019-05-12T01:20:13.940Z,8.07
2019-05-12T01:23:23.060Z,8.22
2019-05-12T01:26:28.327Z,8.06
2019-05-12T01:29:32.841Z,8.25
2019-05-12T01:32:40.076Z,8.06
2019-05-12T01:35:45.251Z,7.87
2019-05-12T01:38:50.381Z,7.78
2019-05-12T01:41:55.555Z,7.73
2019-05-12T01:45:00.743Z,7.72
2019-05-12T01:48:08.365Z,7.75
2019-05-12T01:51:12.896Z,7.71
2019-05-12T01:54:18.912Z,7.83
2019-05-12T01:57:24.120Z,7.61
2019-05-12T02:00:29.290Z,7.50
2019-05-12T02:03:34.492Z,7.55
2019-05-12T02:06:39.635Z,7.61
2019-05-12T02:09:48.072Z,7.44
2019-05-12T02:12:53.466Z,7.45
2019-05-12T02:15:58.590Z,7.39
2019-05-12T02:19:03.750Z,7.22
2019-05-12T02:22:08.855Z,7.17
2019-05-12T02:25:14.653Z,7.19
2019-05-12T02:28:19.763Z,7.21
2019-05-12T02:31:25.008Z,7.20
2019-05-12T02:34:30.309Z,7.22
2019-05-12T02:37:36.019Z,7.36
2019-05-12T02:40:41.348Z,7.38
2019-05-12T02:43:46.565Z,7.39
2019-05-12T02:46:51.686Z,7.48
2019-05-12T02:49:56.933Z,7.45
2019-05-12T02:53:04.895Z,7.50
2019-05-12T02:56:11.501Z,7.50
2019-05-12T02:59:18.698Z,7.59
2019-05-12T03:02:25.327Z,7.50
2019-05-12T03:05:30.793Z,7.56
2019-05-12T03:08:40.536Z,7.71
2019-05-12T03:11:46.619Z,7.66
2019-05-12T03:14:54.250Z,7.66
2019-05-12T03:17:58.738Z,7.61
2019-05-12T03:21:05.530Z,7.63
2019-05-12T03:24:10.731Z,7.59
2019-05-12T03:27:17.790Z,7.46
2019-05-12T03:30:28.452Z,7.34
2019-05-12T03:33:35.957Z,7.27
2019-05-12T03:36:42.370Z,7.11
2019-05-12T03:39:44.860Z,7.07
2019-05-12T03:42:50.064Z,6.90
2019-05-12T03:45:55.948Z,6.83
2019-05-12T03:49:04.913Z,7.00
2019-05-12T03:52:08.121Z,7.02
2019-05-12T03:55:30.384Z,6.85
2019-05-12T03:58:20.512Z,6.87
2019-05-12T04:01:25.977Z,6.73
2019-05-12T04:04:34.100Z,6.87
2019-05-12T04:07:38.020Z,6.92
2019-05-12T04:10:45.415Z,6.92
2019-05-12T04:13:49.979Z,6.97
2019-05-12T04:16:55.401Z,6.92
2019-05-12T04:20:00.685Z,6.87
2019-05-12T04:23:07.018Z,6.80
2019-05-12T04:26:16.743Z,7.07
2019-05-12T04:29:19.071Z,7.45
2019-05-12T04:32:25.153Z,7.86
2019-05-12T04:35:30.499Z,8.52
2019-05-12T04:38:35.759Z,9.14
2019-05-12T04:41:44.724Z,9.40
2019-05-12T04:44:48.870Z,10.09
2019-05-12T04:47:55.260Z,9.16
2019-05-12T04:51:00.616Z,9.76
2019-05-12T04:54:06.460Z,11.68
2019-05-12T04:57:14.814Z,11.01
2019-05-12T05:00:18.706Z,11.43
2019-05-12T05:03:24.694Z,11.66
2019-05-12T05:06:30.130Z,11.17
2019-05-12T05:09:35.287Z,10.73
2019-05-12T05:12:40.489Z,10.10
2019-05-12T05:15:45.668Z,10.61
2019-05-12T05:18:50.809Z,10.32
2019-05-12T05:21:56.064Z,10.05
2019-05-12T05:25:01.244Z,10.45
2019-05-12T05:28:06.516Z,10.93
2019-05-12T05:31:13.884Z,12.38
2019-05-12T05:34:18.548Z,12.75
2019-05-12T05:37:23.993Z,13.10
2019-05-12T05:40:30.404Z,13.00
2019-05-12T05:43:35.637Z,13.43
2019-05-12T05:46:48.151Z,13.99
2019-05-12T05:49:49.438Z,12.75
2019-05-12T05:52:56.062Z,13.50
2019-05-12T05:56:01.263Z,13.14
2019-05-12T05:59:06.424Z,13.05
2019-05-12T06:02:13.770Z,13.59
2019-05-12T06:05:19.976Z,12.97
2019-05-12T06:08:25.444Z,12.25
2019-05-12T06:11:30.594Z,10.59
2019-05-12T06:14:35.731Z,10.00
2019-05-12T06:17:40.950Z,9.44
2019-05-12T06:20:46.122Z,9.96
2019-05-12T06:23:51.371Z,9.71
2019-05-12T06:27:00.636Z,10.18
2019-05-12T06:30:06.178Z,9.29
2019-05-12T06:33:10.419Z,9.07
2019-05-12T06:36:22.284Z,9.11
2019-05-12T06:39:23.589Z,9.01
2019-05-12T06:42:28.870Z,9.68
2019-05-12T06:45:41.879Z,9.17
2019-05-12T06:48:43.286Z,9.27
2019-05-12T06:51:53.630Z,9.07
2019-05-12T06:54:56.770Z,9.01
2019-05-12T06:58:04.457Z,8.93
2019-05-12T07:01:11.048Z,8.91
2019-05-12T07:04:15.857Z,8.89
2019-05-12T07:07:25.599Z,8.78
2019-05-12T07:10:43.091Z,8.78
2019-05-12T07:13:38.937Z,8.44
2019-05-12T07:16:53.302Z,8.53
2019-05-12T07:20:03.858Z,8.62
2019-05-12T07:23:08.708Z,8.86
2019-05-12T07:26:19.206Z,8.79
2019-05-12T07:29:20.827Z,9.09
2019-05-12T07:32:26.088Z,9.19
2019-05-12T07:35:33.761Z,9.31
2019-05-12T07:38:43.279Z,9.29
2019-05-12T07:41:52.172Z,9.28
2019-05-12T07:44:59.438Z,9.24
2019-05-12T07:48:08.725Z,8.92
2019-05-12T07:51:13.638Z,9.07
2019-05-12T07:54:18.366Z,9.02
2019-05-12T07:57:24.194Z,9.25
2019-05-12T08:00:29.512Z,9.52
2019-05-12T08:03:34.899Z,9.55
2019-05-12T08:06:41.542Z,9.31
2019-05-12T08:09:47.040Z,9.65
2019-05-12T08:12:59.284Z,9.68
2019-05-12T08:15:59.115Z,9.83
2019-05-12T08:19:04.380Z,9.84
2019-05-12T08:22:09.524Z,9.73
2019-05-12T08:25:18.802Z,9.63
2019-05-12T08:28:28.129Z,9.50
2019-05-12T08:31:32.477Z,9.42
2019-05-12T08:34:35.633Z,9.81
2019-05-12T08:37:40.826Z,9.69
2019-05-12T08:40:50.975Z,9.69
2019-05-12T08:43:57.964Z,9.53
2019-05-12T08:47:00.117Z,9.68
2019-05-12T08:50:05.375Z,10.08
2019-05-12T08:53:12.240Z,10.27
2019-05-12T08:56:19.411Z,10.17
2019-05-12T08:59:27.311Z,10.46
2019-05-12T09:02:31.290Z,10.55
2019-05-12T09:05:38.371Z,11.26
2019-05-12T09:08:49.210Z,12.35
2019-05-12T09:11:54.059Z,13.67
2019-05-12T09:14:58.804Z,12.69
2019-05-12T09:18:04.815Z,12.24
2019-05-12T09:21:10.247Z,11.75
2019-05-12T09:24:21.722Z,11.37
2019-05-12T09:27:24.144Z,11.53
2019-05-12T09:30:33.521Z,11.77
2019-05-12T09:33:38.312Z,11.32
2019-05-12T09:36:44.256Z,11.70
2019-05-12T09:39:51.850Z,12.70
2019-05-12T09:43:00.221Z,11.36
2019-05-12T09:46:05.544Z,10.75
2019-05-12T09:49:10.678Z,10.84
2019-05-12T09:52:22.736Z,10.22
2019-05-12T09:55:24.811Z,11.27
2019-05-12T09:58:29.698Z,12.06
2019-05-12T10:01:39.306Z,12.32
2019-05-12T10:04:43.670Z,11.71
2019-05-12T10:07:48.599Z,12.03
2019-05-12T10:10:53.860Z,11.65
2019-05-12T10:14:00.446Z,11.97
2019-05-12T10:17:05.988Z,12.28
2019-05-12T10:20:13.689Z,12.16
2019-05-12T10:23:21.557Z,12.61
2019-05-12T10:26:25.360Z,12.80
2019-05-12T10:29:32.145Z,13.29
2019-05-12T10:32:37.725Z,12.85
2019-05-12T10:35:43.891Z,13.13
2019-05-12T10:38:49.333Z,13.10
2019-05-12T10:41:55.753Z,12.99
2019-05-12T10:45:01.060Z,13.18
2019-05-12T10:48:06.434Z,13.39
2019-05-12T10:51:11.618Z,13.20
2019-05-12T10:54:16.847Z,13.55
2019-05-12T10:57:21.955Z,14.00
2019-05-12T11:00:27.213Z,13.99
2019-05-12T11:03:33.769Z,14.00
2019-05-12T11:06:39.798Z,13.80
2019-05-12T11:09:45.997Z,13.70
2019-05-12T11:12:51.144Z,13.56
2019-05-12T11:15:56.318Z,14.01
2019-05-12T11:19:06.498Z,13.90
2019-05-12T11:22:09.664Z,13.70
2019-05-12T11:25:14.878Z,13.93
2019-05-12T11:28:20.014Z,14.13
2019-05-12T11:31:25.228Z,14.75
2019-05-12T11:34:30.371Z,15.27
2019-05-12T11:37:35.604Z,15.24
2019-05-12T11:40:40.725Z,15.27
2019-05-12T11:43:45.947Z,15.27
2019-05-12T11:46:51.109Z,15.34
2019-05-12T11:49:58.561Z,14.86
2019-05-12T11:53:04.161Z,15.30
2019-05-12T11:56:09.599Z,14.80
2019-05-12T11:59:14.782Z,13.92
2019-05-12T12:02:26.301Z,14.39
2019-05-12T12:05:27.281Z,14.39
2019-05-12T12:08:36.989Z,14.87
2019-05-12T12:11:39.411Z,15.10
2019-05-12T12:14:46.201Z,14.77
2019-05-12T12:17:53.453Z,14.02
2019-05-12T12:21:04.237Z,14.57
2019-05-12T12:24:05.241Z,14.61
2019-05-12T12:27:10.440Z,15.08
2019-05-12T12:30:19.681Z,15.72
2019-05-12T12:33:23.456Z,15.27
2019-05-12T12:36:28.747Z,15.39
2019-05-12T12:39:33.885Z,14.93
2019-05-12T12:42:44.128Z,15.28
2019-05-12T12:46:00.312Z,15.14
2019-05-12T12:49:10.267Z,15.40
2019-05-12T12:52:13.811Z,14.80
2019-05-12T12:55:19.183Z,15.42
2019-05-12T12:58:27.050Z,15.80
2019-05-12T13:01:33.486Z,15.58
2019-05-12T13:04:39.690Z,15.45
2019-05-12T13:07:44.863Z,15.27
2019-05-12T13:10:53.558Z,15.21
2019-05-12T13:13:57.647Z,15.67
2019-05-12T13:17:04.234Z,15.57
2019-05-12T13:20:10.372Z,15.09
2019-05-12T13:23:15.788Z,15.64
2019-05-12T13:26:20.880Z,15.47
2019-05-12T13:29:34.554Z,15.51
2019-05-12T13:32:37.797Z,15.63
2019-05-12T13:35:39.760Z,15.75
2019-05-12T13:38:44.926Z,16.22
2019-05-12T13:41:55.163Z,15.88
2019-05-12T13:44:57.139Z,16.05
2019-05-12T13:48:03.910Z,15.73
2019-05-12T13:51:13.232Z,15.27
2019-05-12T13:54:20.103Z,15.61
2019-05-12T13:57:23.682Z,15.71
2019-05-12T14:00:28.997Z,15.85
2019-05-12T14:03:34.308Z,16.16
2019-05-12T14:06:39.607Z,16.18
2019-05-12T14:09:44.746Z,16.34
2019-05-12T14:12:50.016Z,16.31
2019-05-12T14:15:55.175Z,16.33
2019-05-12T14:19:00.586Z,16.20
2019-05-12T14:22:06.891Z,15.90
2019-05-12T14:25:14.885Z,15.70
2019-05-12T14:28:20.317Z,16.00
2019-05-12T14:31:30.299Z,15.67
2019-05-12T14:34:33.976Z,15.83
2019-05-12T14:37:40.314Z,15.43
2019-05-12T14:40:49.656Z,15.88
2019-05-12T14:44:03.416Z,15.48
2019-05-12T14:47:28.530Z,15.56
2019-05-12T14:50:34.079Z,16.06
2019-05-12T14:53:39.839Z,15.79
2019-05-12T14:56:53.089Z,15.21
2019-05-12T14:59:53.342Z,14.97
2019-05-12T15:02:59.172Z,15.12
2019-05-12T15:06:07.668Z,16.09
2019-05-12T15:09:19.524Z,15.81
2019-05-12T15:12:19.552Z,15.41
2019-05-12T15:15:24.726Z,16.07
2019-05-12T15:18:29.977Z,16.34
2019-05-12T15:21:35.335Z,15.96
2019-05-12T15:24:40.591Z,16.51
2019-05-12T15:27:48.363Z,16.03
2019-05-12T15:30:54.194Z,15.95
2019-05-12T15:33:59.682Z,15.79
2019-05-12T15:37:04.847Z,15.73
2019-05-12T15:40:10.063Z,15.27
2019-05-12T15:43:15.312Z,15.67
2019-05-12T15:46:20.724Z,15.77
2019-05-12T15:49:26.336Z,15.24
2019-05-12T15:52:38.350Z,15.14
2019-05-12T15:55:38.633Z,15.32
2019-05-12T15:58:45.589Z,14.71
2019-05-12T16:01:53.151Z,14.28
2019-05-12T16:04:57.679Z,14.42
2019-05-12T16:08:03.604Z,14.42
2019-05-12T16:11:09.082Z,14.11
2019-05-12T16:14:14.457Z,13.78
2019-05-12T16:17:25.420Z,13.55
2019-05-12T16:20:26.857Z,13.49
2019-05-12T16:23:34.127Z,13.26
2019-05-12T16:26:45.273Z,13.28
2019-05-12T16:29:49.929Z,13.40
2019-05-12T16:32:55.034Z,13.97
2019-05-12T16:36:09.386Z,14.50
2019-05-12T16:39:08.870Z,14.62
2019-05-12T16:42:14.260Z,14.75
2019-05-12T16:45:20.166Z,15.28
2019-05-12T16:48:33.119Z,14.39
2019-05-12T16:51:33.315Z,14.22
2019-05-12T16:54:38.785Z,14.47
2019-05-12T16:57:51.645Z,14.01
2019-05-12T17:00:53.383Z,13.59
2019-05-12T17:03:58.320Z,13.09
2019-05-12T17:07:03.571Z,12.87
2019-05-12T17:10:16.239Z,12.80
2019-05-12T17:13:16.313Z,12.75
2019-05-12T17:16:21.489Z,12.60
2019-05-12T17:19:26.644Z,12.59
2019-05-12T17:22:31.933Z,12.69
2019-05-12T17:25:37.202Z,12.68
2019-05-12T17:28:43.608Z,12.66
2019-05-12T17:31:48.857Z,12.53
2019-05-12T17:34:54.065Z,12.47
2019-05-12T17:38:00.379Z,12.46
2019-05-12T17:41:05.712Z,12.54
2019-05-12T17:44:10.915Z,12.27
2019-05-12T17:47:21.566Z,12.32
2019-05-12T17:50:24.206Z,12.31
2019-05-12T17:53:30.637Z,12.26
2019-05-12T17:56:38.633Z,12.12
2019-05-12T17:59:44.718Z,12.09
2019-05-12T18:02:56.197Z,12.09
2019-05-12T18:05:57.000Z,12.03
2019-05-12T18:09:04.003Z,11.93
2019-05-12T18:12:09.222Z,11.71
2019-05-12T18:15:15.459Z,11.71
2019-05-12T18:18:24.124Z,11.47
2019-05-12T18:21:30.979Z,11.40
2019-05-12T18:24:34.989Z,11.30
2019-05-12T18:27:47.943Z,11.26
2019-05-12T18:30:47.101Z,11.24
2019-05-12T18:33:56.699Z,10.87
2019-05-12T18:36:59.941Z,10.85
2019-05-12T18:40:06.185Z,10.62
2019-05-12T18:43:11.418Z,10.56
2019-05-12T18:46:16.703Z,10.51
2019-05-12T18:49:23.814Z,10.46
2019-05-12T18:52:39.327Z,10.34
2019-05-12T18:55:40.377Z,10.46
2019-05-12T18:58:45.260Z,10.37
2019-05-12T19:01:50.449Z,10.10
2019-05-12T19:04:55.605Z,10.02
2019-05-12T19:08:00.762Z,10.02
2019-05-12T19:11:18.885Z,9.67
2019-05-12T19:14:13.577Z,9.34
2019-05-12T19:17:18.866Z,9.01
2019-05-12T19:20:24.300Z,8.72
2019-05-12T19:23:34.965Z,8.45
2019-05-12T19:26:38.559Z,8.29
2019-05-12T19:29:48.290Z,8.08
2019-05-12T19:32:52.506Z,8.12
2019-05-12T19:36:04.072Z,7.89
2019-05-12T19:39:06.487Z,7.77
2019-05-12T19:42:18.652Z,7.64
2019-05-12T19:45:21.645Z,7.58
2019-05-12T19:48:27.595Z,7.40
2019-05-12T19:51:34.558Z,7.28
2019-05-12T19:54:39.924Z,7.11
2019-05-12T19:57:45.191Z,7.21
2019-05-12T20:00:50.466Z,7.06
2019-05-12T20:03:57.991Z,6.91
2019-05-12T20:07:03.680Z,6.84
2019-05-12T20:10:12.613Z,6.71
2019-05-12T20:13:16.062Z,6.81
2019-05-12T20:16:24.523Z,6.92
2019-05-12T20:19:28.162Z,6.77
2019-05-12T20:22:34.369Z,6.79
2019-05-12T20:25:39.545Z,6.51
2019-05-12T20:28:50.467Z,6.36
2019-05-12T20:31:53.710Z,6.27
2019-05-12T20:34:58.567Z,6.40
2019-05-12T20:38:04.240Z,6.20
2019-05-12T20:41:10.868Z,6.26
2019-05-12T20:44:19.938Z,6.07
2019-05-12T20:47:23.498Z,5.99
2019-05-12T20:50:32.562Z,6.28
2019-05-12T20:53:36.729Z,6.25
2019-05-12T20:56:43.479Z,6.16
2019-05-12T20:59:48.875Z,5.91
2019-05-12T21:02:54.083Z,5.81
2019-05-12T21:06:01.576Z,5.82
2019-05-12T21:09:07.321Z,5.86
2019-05-12T21:12:13.842Z,5.92
2019-05-12T21:15:20.712Z,5.86
2019-05-12T21:18:26.087Z,5.76
2019-05-12T21:21:34.264Z,5.62
2019-05-12T21:24:39.463Z,5.73
2019-05-12T21:27:47.623Z,5.66
2019-05-12T21:30:53.144Z,5.44
2019-05-12T21:33:58.433Z,5.49
2019-05-12T21:37:04.638Z,5.37
2019-05-12T21:40:10.766Z,5.56
2019-05-12T21:43:15.926Z,5.43
2019-05-12T21:46:21.162Z,5.40
2019-05-12T21:49:27.373Z,5.36
2019-05-12T21:52:34.958Z,5.22
2019-05-12T21:55:39.501Z,5.02
2019-05-12T21:58:53.846Z,4.94
2019-05-12T22:01:53.419Z,4.87
2019-05-12T22:04:58.653Z,4.83
2019-05-12T22:08:06.548Z,5.00
2019-05-12T22:11:11.976Z,4.89
2019-05-12T22:14:17.147Z,5.03
2019-05-12T22:17:23.969Z,5.22
2019-05-12T22:20:32.570Z,5.16
2019-05-12T22:23:44.582Z,5.28
2019-05-12T22:26:46.663Z,5.35
2019-05-12T22:29:51.542Z,5.42
2019-05-12T22:32:59.387Z,5.49
2019-05-12T22:36:13.841Z,5.66
2019-05-12T22:39:10.441Z,5.61
2019-05-12T22:42:20.252Z,5.43
2019-05-12T22:45:24.016Z,5.31
2019-05-12T22:48:35.411Z,5.03
2019-05-12T22:51:36.230Z,4.76
2019-05-12T22:54:46.837Z,4.51
2019-05-12T22:57:48.245Z,4.41
2019-05-12T23:01:00.880Z,4.47
2019-05-12T23:04:03.842Z,4.27
2019-05-12T23:07:09.149Z,4.15
2019-05-12T23:10:14.456Z,4.05
2019-05-12T23:13:19.637Z,3.99
2019-05-12T23:16:29.100Z,3.88
2019-05-12T23:19:33.890Z,4.06
2019-05-12T23:22:38.478Z,4.06
2019-05-12T23:25:44.108Z,4.06
2019-05-12T23:28:50.319Z,4.04
2019-05-12T23:32:00.766Z,4.01
2019-05-12T23:35:03.831Z,4.07
2019-05-12T23:38:10.383Z,3.88
2019-05-12T23:41:15.924Z,3.73
2019-05-12T23:44:21.123Z,3.64
2019-05-12T23:47:26.245Z,3.74
2019-05-12T23:50:31.421Z,3.64
2019-05-12T23:53:36.572Z,3.59
2019-05-12T23:56:43.886Z,3.54
2019-05-12T23:59:48.650Z,3.56
